sensor_id;sensor_type;location;lat;lon;timestamp;pressure;altitude;pressure_sealevel;temperature;humidity
78144;BME280;67394;52.522;13.622;2023-09-12T00:00:47;100571.78;;;16.73;100.00
78144;BME280;67394;52.522;13.622;2023-09-12T00:03:13;100571.81;;;16.72;100.00
78144;BME280;67394;52.522;13.622;2023-09-12T00:05:40;100576.22;;;16.68;100.00
78144;BME280;67394;52.522;13.622;2023-09-12T00:08:07;100574.47;;;16.69;100.00
78144;BME280;67394;52.522;13.622;2023-09-12T00:10:34;100579.72;;;16.66;100.00
78144;BME280;67394;52.522;13.622;2023-09-12T00:13:01;100572.06;;;16.61;100.00
78144;BME280;67394;52.522;13.622;2023-09-12T00:15:28;100580.72;;;16.60;100.00
78144;BME280;67394;52.522;13.622;2023-09-12T00:17:56;100585.09;;;16.57;100.00
78144;BME280;67394;52.522;13.622;2023-09-12T00:20:23;100575.59;;;16.57;100.00
78144;BME280;67394;52.522;13.622;2023-09-12T00:22:50;100574.03;;;16.52;100.00
78144;BME280;67394;52.522;13.622;2023-09-12T00:25:16;100573.88;;;16.58;100.00
78144;BME280;67394;52.522;13.622;2023-09-12T00:27:43;100574.78;;;16.55;100.00
78144;BME280;67394;52.522;13.622;2023-09-12T00:30:10;100570.59;;;16.51;100.00
78144;BME280;67394;52.522;13.622;2023-09-12T00:32:36;100575.88;;;16.46;100.00
78144;BME280;67394;52.522;13.622;2023-09-12T00:35:03;100573.25;;;16.48;100.00
78144;BME280;67394;52.522;13.622;2023-09-12T00:37:30;100578.66;;;16.40;100.00
78144;BME280;67394;52.522;13.622;2023-09-12T00:39:58;100572.69;;;16.37;100.00
78144;BME280;67394;52.522;13.622;2023-09-12T00:42:27;100567.59;;;16.34;100.00
78144;BME280;67394;52.522;13.622;2023-09-12T00:44:54;100567.69;;;16.31;100.00
78144;BME280;67394;52.522;13.622;2023-09-12T00:47:21;100567.69;;;16.31;100.00
78144;BME280;67394;52.522;13.622;2023-09-12T00:49:49;100574.47;;;16.35;100.00
78144;BME280;67394;52.522;13.622;2023-09-12T00:52:24;100581.50;;;16.30;100.00
78144;BME280;67394;52.522;13.622;2023-09-12T00:54:52;100574.69;;;16.26;100.00
78144;BME280;67394;52.522;13.622;2023-09-12T00:57:19;100569.63;;;16.21;100.00
78144;BME280;67394;52.522;13.622;2023-09-12T00:59:48;100573.13;;;16.20;100.00
78144;BME280;67394;52.522;13.622;2023-09-12T01:02:15;100577.38;;;16.21;100.00
78144;BME280;67394;52.522;13.622;2023-09-12T01:04:43;100574.88;;;16.20;100.00
78144;BME280;67394;52.522;13.622;2023-09-12T01:07:10;100581.84;;;16.16;100.00
78144;BME280;67394;52.522;13.622;2023-09-12T01:09:36;100575.81;;;16.16;100.00
78144;BME280;67394;52.522;13.622;2023-09-12T01:12:03;100575.88;;;16.13;100.00
78144;BME280;67394;52.522;13.622;2023-09-12T01:14:31;100571.59;;;16.11;100.00
78144;BME280;67394;52.522;13.622;2023-09-12T01:16:59;100577.66;;;16.10;100.00
78144;BME280;67394;52.522;13.622;2023-09-12T01:19:26;100570.81;;;16.09;100.00
78144;BME280;67394;52.522;13.622;2023-09-12T01:22:10;100568.28;;;16.06;100.00
78144;BME280;67394;52.522;13.622;2023-09-12T01:25:08;100570.91;;;16.05;100.00
78144;BME280;67394;52.522;13.622;2023-09-12T01:27:49;100568.34;;;16.03;100.00
78144;BME280;67394;52.522;13.622;2023-09-12T01:30:21;100574.44;;;16.01;100.00
78144;BME280;67394;52.522;13.622;2023-09-12T01:32:48;100577.16;;;15.96;100.00
78144;BME280;67394;52.522;13.622;2023-09-12T01:35:16;100566.81;;;15.96;100.00
78144;BME280;67394;52.522;13.622;2023-09-12T01:37:42;100572.91;;;15.94;100.00
78144;BME280;67394;52.522;13.622;2023-09-12T01:40:09;100569.59;;;15.89;100.00
78144;BME280;67394;52.522;13.622;2023-09-12T01:42:40;100571.34;;;15.87;100.00
78144;BME280;67394;52.522;13.622;2023-09-12T01:45:17;100570.47;;;15.88;100.00
78144;BME280;67394;52.522;13.622;2023-09-12T01:47:49;100572.25;;;15.84;100.00
78144;BME280;67394;52.522;13.622;2023-09-12T01:50:17;100574.84;;;15.84;100.00
78144;BME280;67394;52.522;13.622;2023-09-12T01:52:44;100574.91;;;15.81;100.00
78144;BME280;67394;52.522;13.622;2023-09-12T01:55:11;100577.59;;;15.78;100.00
78144;BME280;67394;52.522;13.622;2023-09-12T01:57:38;100575.03;;;15.77;100.00
78144;BME280;67394;52.522;13.622;2023-09-12T02:00:06;100563.03;;;15.74;100.00
78144;BME280;67394;52.522;13.622;2023-09-12T02:02:33;100563.91;;;15.73;100.00
78144;BME280;67394;52.522;13.622;2023-09-12T02:05:10;100564.78;;;15.72;100.00
78144;BME280;67394;52.522;13.622;2023-09-12T02:07:41;100563.16;;;15.68;100.00
78144;BME280;67394;52.522;13.622;2023-09-12T02:10:08;100567.53;;;15.66;100.00
78144;BME280;67394;52.522;13.622;2023-09-12T02:12:34;100567.53;;;15.66;100.00
78144;BME280;67394;52.522;13.622;2023-09-12T02:15:01;100563.25;;;15.65;100.00
78144;BME280;67394;52.522;13.622;2023-09-12T02:17:28;100556.47;;;15.59;100.00
78144;BME280;67394;52.522;13.622;2023-09-12T02:19:55;100563.34;;;15.59;100.00
78144;BME280;67394;52.522;13.622;2023-09-12T02:22:22;100559.94;;;15.58;100.00
78144;BME280;67394;52.522;13.622;2023-09-12T02:24:49;100552.25;;;15.57;100.00
78144;BME280;67394;52.522;13.622;2023-09-12T02:27:16;100556.63;;;15.50;100.00
78144;BME280;67394;52.522;13.622;2023-09-12T02:29:43;100550.78;;;15.44;100.00
78144;BME280;67394;52.522;13.622;2023-09-12T02:32:10;100552.47;;;15.45;100.00
78144;BME280;67394;52.522;13.622;2023-09-12T02:34:37;100559.41;;;15.43;100.00
78144;BME280;67394;52.522;13.622;2023-09-12T02:37:04;100558.53;;;15.42;100.00
78144;BME280;67394;52.522;13.622;2023-09-12T02:39:31;100561.16;;;15.41;100.00
78144;BME280;67394;52.522;13.622;2023-09-12T02:42:00;100551.75;;;15.38;100.00
78144;BME280;67394;52.522;13.622;2023-09-12T02:44:28;100552.69;;;15.35;100.00
78144;BME280;67394;52.522;13.622;2023-09-12T02:46:56;100546.59;;;15.36;100.00
78144;BME280;67394;52.522;13.622;2023-09-12T02:49:24;100547.56;;;15.32;100.00
78144;BME280;67394;52.522;13.622;2023-09-12T02:51:53;100542.47;;;15.29;100.00
78144;BME280;67394;52.522;13.622;2023-09-12T02:54:19;100549.38;;;15.27;100.00
78144;BME280;67394;52.522;13.622;2023-09-12T02:56:46;100551.97;;;15.27;100.00
78144;BME280;67394;52.522;13.622;2023-09-12T02:59:12;100551.13;;;15.27;100.00
78144;BME280;67394;52.522;13.622;2023-09-12T03:01:39;100549.47;;;15.24;100.00
78144;BME280;67394;52.522;13.622;2023-09-12T03:04:06;100546.06;;;15.22;100.00
78144;BME280;67394;52.522;13.622;2023-09-12T03:06:32;100545.28;;;15.19;100.00
78144;BME280;67394;52.522;13.622;2023-09-12T03:08:59;100548.72;;;15.18;100.00
78144;BME280;67394;52.522;13.622;2023-09-12T03:11:26;100541.06;;;15.15;100.00
78144;BME280;67394;52.522;13.622;2023-09-12T03:13:53;100540.31;;;15.10;100.00
78144;BME280;67394;52.522;13.622;2023-09-12T03:16:19;100538.59;;;15.09;100.00
78144;BME280;67394;52.522;13.622;2023-09-12T03:18:46;100533.47;;;15.07;100.00
78144;BME280;67394;52.522;13.622;2023-09-12T03:21:13;100536.91;;;15.08;100.00
78144;BME280;67394;52.522;13.622;2023-09-12T03:23:39;100535.19;;;15.07;100.00
78144;BME280;67394;52.522;13.622;2023-09-12T03:26:06;100542.06;;;15.08;100.00
78144;BME280;67394;52.522;13.622;2023-09-12T03:28:33;100541.28;;;15.04;100.00
78144;BME280;67394;52.522;13.622;2023-09-12T03:31:08;100531.84;;;15.03;100.00
78144;BME280;67394;52.522;13.622;2023-09-12T03:33:35;100536.94;;;15.05;100.00
78144;BME280;67394;52.522;13.622;2023-09-12T03:36:03;100532.78;;;14.99;100.00
78144;BME280;67394;52.522;13.622;2023-09-12T03:38:30;100528.53;;;14.95;100.00
78144;BME280;67394;52.522;13.622;2023-09-12T03:40:57;100532.84;;;14.96;100.00
78144;BME280;67394;52.522;13.622;2023-09-12T03:43:23;100543.16;;;14.96;100.00
78144;BME280;67394;52.522;13.622;2023-09-12T03:45:50;100533.78;;;14.93;100.00
78144;BME280;67394;52.522;13.622;2023-09-12T03:48:17;100542.34;;;14.94;100.00
78144;BME280;67394;52.522;13.622;2023-09-12T03:50:44;100540.72;;;14.90;100.00
78144;BME280;67394;52.522;13.622;2023-09-12T03:53:15;100539.75;;;14.94;100.00
78144;BME280;67394;52.522;13.622;2023-09-12T03:55:42;100537.28;;;14.89;100.00
78144;BME280;67394;52.522;13.622;2023-09-12T03:58:09;100536.41;;;14.90;100.00
78144;BME280;67394;52.522;13.622;2023-09-12T04:00:36;100538.13;;;14.90;100.00
78144;BME280;67394;52.522;13.622;2023-09-12T04:03:02;100539.97;;;14.83;100.00
78144;BME280;67394;52.522;13.622;2023-09-12T04:05:29;100539.03;;;14.87;100.00
78144;BME280;67394;52.522;13.622;2023-09-12T04:07:56;100545.09;;;14.85;100.00
78144;BME280;67394;52.522;13.622;2023-09-12T04:10:25;100538.22;;;14.84;100.00
78144;BME280;67394;52.522;13.622;2023-09-12T04:12:54;100552.94;;;14.80;100.00
78144;BME280;67394;52.522;13.622;2023-09-12T04:15:21;100544.38;;;14.78;100.00
78144;BME280;67394;52.522;13.622;2023-09-12T04:17:48;100546.16;;;14.75;100.00
78144;BME280;67394;52.522;13.622;2023-09-12T04:20:14;100555.63;;;14.74;100.00
78144;BME280;67394;52.522;13.622;2023-09-12T04:22:44;100550.47;;;14.74;100.00
78144;BME280;67394;52.522;13.622;2023-09-12T04:25:10;100547.03;;;14.74;100.00
78144;BME280;67394;52.522;13.622;2023-09-12T04:27:37;100549.69;;;14.71;100.00
78144;BME280;67394;52.522;13.622;2023-09-12T04:30:04;100549.69;;;14.71;100.00
78144;BME280;67394;52.522;13.622;2023-09-12T04:32:31;100555.72;;;14.70;100.00
78144;BME280;67394;52.522;13.622;2023-09-12T04:34:58;100554.03;;;14.69;100.00
78144;BME280;67394;52.522;13.622;2023-09-12T04:37:24;100560.03;;;14.69;100.00
78144;BME280;67394;52.522;13.622;2023-09-12T04:39:52;100565.22;;;14.69;100.00
78144;BME280;67394;52.522;13.622;2023-09-12T04:42:18;100560.91;;;14.68;100.00
78144;BME280;67394;52.522;13.622;2023-09-12T04:44:45;100566.09;;;14.67;100.00
78144;BME280;67394;52.522;13.622;2023-09-12T04:47:12;100563.56;;;14.65;100.00
78144;BME280;67394;52.522;13.622;2023-09-12T04:49:39;100556.72;;;14.62;100.00
78144;BME280;67394;52.522;13.622;2023-09-12T04:52:06;100555.84;;;14.63;100.00
78144;BME280;67394;52.522;13.622;2023-09-12T04:54:33;100554.09;;;14.65;100.00
78144;BME280;67394;52.522;13.622;2023-09-12T04:57:00;100554.91;;;14.68;100.00
78144;BME280;67394;52.522;13.622;2023-09-12T04:59:27;100555.72;;;14.70;100.00
78144;BME280;67394;52.522;13.622;2023-09-12T05:01:53;100557.44;;;14.71;100.00
78144;BME280;67394;52.522;13.622;2023-09-12T05:04:20;100559.91;;;14.75;100.00
78144;BME280;67394;52.522;13.622;2023-09-12T05:06:46;100557.31;;;14.77;100.00
78144;BME280;67394;52.522;13.622;2023-09-12T05:09:13;100561.56;;;14.79;100.00
78144;BME280;67394;52.522;13.622;2023-09-12T05:11:43;100560.59;;;14.85;100.00
78144;BME280;67394;52.522;13.622;2023-09-12T05:14:09;100563.94;;;14.90;100.00
78144;BME280;67394;52.522;13.622;2023-09-12T05:16:36;100565.56;;;14.94;100.00
78144;BME280;67394;52.522;13.622;2023-09-12T05:19:02;100568.06;;;14.98;100.00
78144;BME280;67394;52.522;13.622;2023-09-12T05:21:29;100576.59;;;15.04;100.00
78144;BME280;67394;52.522;13.622;2023-09-12T05:23:56;100572.16;;;15.09;100.00
78144;BME280;67394;52.522;13.622;2023-09-12T05:26:23;100566.06;;;15.13;100.00
78144;BME280;67394;52.522;13.622;2023-09-12T05:28:49;100577.09;;;15.19;100.00
78144;BME280;67394;52.522;13.622;2023-09-12T05:31:16;100568.41;;;15.25;100.00
78144;BME280;67394;52.522;13.622;2023-09-12T05:33:43;100574.28;;;15.31;100.00
78144;BME280;67394;52.522;13.622;2023-09-12T05:36:10;100577.53;;;15.39;100.00
78144;BME280;67394;52.522;13.622;2023-09-12T05:38:36;100574.75;;;15.49;100.00
78144;BME280;67394;52.522;13.622;2023-09-12T05:41:03;100582.31;;;15.59;100.00
78144;BME280;67394;52.522;13.622;2023-09-12T05:43:30;100576.97;;;15.67;100.00
78144;BME280;67394;52.522;13.622;2023-09-12T05:45:56;100580.22;;;15.75;100.00
78144;BME280;67394;52.522;13.622;2023-09-12T05:48:23;100580.03;;;15.84;100.00
78144;BME280;67394;52.522;13.622;2023-09-12T05:50:50;100578.09;;;15.92;100.00
78144;BME280;67394;52.522;13.622;2023-09-12T05:53:16;100578.75;;;16.00;100.00
78144;BME280;67394;52.522;13.622;2023-09-12T05:55:43;100578.63;;;16.06;100.00
78144;BME280;67394;52.522;13.622;2023-09-12T05:58:09;100581.06;;;16.13;100.00
78144;BME280;67394;52.522;13.622;2023-09-12T06:00:36;100585.97;;;16.23;100.00
78144;BME280;67394;52.522;13.622;2023-09-12T06:03:03;100587.53;;;16.30;100.00
78144;BME280;67394;52.522;13.622;2023-09-12T06:05:30;100582.16;;;16.38;100.00
78144;BME280;67394;52.522;13.622;2023-09-12T06:07:56;100591.41;;;16.46;100.00
78144;BME280;67394;52.522;13.622;2023-09-12T06:10:23;100585.16;;;16.55;100.00
78144;BME280;67394;52.522;13.622;2023-09-12T06:12:50;100589.16;;;16.68;100.00
78144;BME280;67394;52.522;13.622;2023-09-12T06:15:16;100589.72;;;16.79;100.00
78144;BME280;67394;52.522;13.622;2023-09-12T06:17:43;100584.34;;;16.86;100.00
78144;BME280;67394;52.522;13.622;2023-09-12T06:20:10;100582.47;;;16.92;100.00
78144;BME280;67394;52.522;13.622;2023-09-12T06:22:37;100582.97;;;17.05;100.00
78144;BME280;67394;52.522;13.622;2023-09-12T06:25:04;100582.59;;;17.17;100.00
78144;BME280;67394;52.522;13.622;2023-09-12T06:27:30;100584.88;;;17.28;100.00
78144;BME280;67394;52.522;13.622;2023-09-12T06:29:57;100590.69;;;17.37;100.00
78144;BME280;67394;52.522;13.622;2023-09-12T06:32:23;100591.06;;;17.53;100.00
78144;BME280;67394;52.522;13.622;2023-09-12T06:34:50;100590.78;;;17.62;100.00
78144;BME280;67394;52.522;13.622;2023-09-12T06:37:17;100594.06;;;17.69;100.00
78144;BME280;67394;52.522;13.622;2023-09-12T06:39:44;100595.38;;;17.82;100.00
78144;BME280;67394;52.522;13.622;2023-09-12T06:42:11;100600.13;;;17.96;100.00
78144;BME280;67394;52.522;13.622;2023-09-12T06:44:38;100593.50;;;18.13;100.00
78144;BME280;67394;52.522;13.622;2023-09-12T06:47:05;100607.50;;;18.34;99.14
78144;BME280;67394;52.522;13.622;2023-09-12T06:49:31;100607.88;;;18.50;98.13
78144;BME280;67394;52.522;13.622;2023-09-12T06:52:00;100609.72;;;18.73;92.80
78144;BME280;67394;52.522;13.622;2023-09-12T06:54:29;100614.88;;;18.97;92.44
78144;BME280;67394;52.522;13.622;2023-09-12T06:56:55;100613.88;;;19.01;92.58
78144;BME280;67394;52.522;13.622;2023-09-12T06:59:22;100616.03;;;19.14;91.50
78144;BME280;67394;52.522;13.622;2023-09-12T07:01:49;100611.44;;;19.20;90.10
78144;BME280;67394;52.522;13.622;2023-09-12T07:04:15;100611.25;;;19.26;90.27
78144;BME280;67394;52.522;13.622;2023-09-12T07:06:42;100613.41;;;19.38;90.95
78144;BME280;67394;52.522;13.622;2023-09-12T07:09:09;100619.13;;;19.48;90.30
78144;BME280;67394;52.522;13.622;2023-09-12T07:11:35;100620.06;;;19.69;86.75
78144;BME280;67394;52.522;13.622;2023-09-12T07:14:02;100615.88;;;19.87;84.79
78144;BME280;67394;52.522;13.622;2023-09-12T07:16:31;100609.41;;;19.97;83.80
78144;BME280;67394;52.522;13.622;2023-09-12T07:18:58;100620.41;;;20.03;86.19
78144;BME280;67394;52.522;13.622;2023-09-12T07:21:24;100626.72;;;20.20;83.30
78144;BME280;67394;52.522;13.622;2023-09-12T07:23:51;100620.38;;;20.25;83.85
78144;BME280;67394;52.522;13.622;2023-09-12T07:26:18;100615.78;;;20.54;80.19
78144;BME280;67394;52.522;13.622;2023-09-12T07:28:44;100610.56;;;20.54;81.10
78144;BME280;67394;52.522;13.622;2023-09-12T07:31:11;100607.63;;;20.61;80.81
78144;BME280;67394;52.522;13.622;2023-09-12T07:33:38;100612.72;;;20.85;78.35
78144;BME280;67394;52.522;13.622;2023-09-12T07:36:05;100615.34;;;21.03;78.74
78144;BME280;67394;52.522;13.622;2023-09-12T07:38:31;100611.28;;;21.16;77.93
78144;BME280;67394;52.522;13.622;2023-09-12T07:40:58;100614.50;;;21.23;76.85
78144;BME280;67394;52.522;13.622;2023-09-12T07:43:24;100602.16;;;21.27;78.03
78144;BME280;67394;52.522;13.622;2023-09-12T07:45:55;100608.00;;;21.32;78.38
78144;BME280;67394;52.522;13.622;2023-09-12T07:48:21;100607.44;;;21.44;77.97
78144;BME280;67394;52.522;13.622;2023-09-12T07:50:48;100608.16;;;21.66;75.89
78144;BME280;67394;52.522;13.622;2023-09-12T07:53:15;100608.69;;;21.73;75.84
78144;BME280;67394;52.522;13.622;2023-09-12T07:55:46;100608.63;;;21.74;76.25
78144;BME280;67394;52.522;13.622;2023-09-12T07:58:16;100610.59;;;21.88;76.27
78144;BME280;67394;52.522;13.622;2023-09-12T08:00:43;100609.28;;;21.97;76.94
78144;BME280;67394;52.522;13.622;2023-09-12T08:03:09;100605.91;;;22.13;78.06
78144;BME280;67394;52.522;13.622;2023-09-12T08:05:36;100600.91;;;22.26;76.89
78144;BME280;67394;52.522;13.622;2023-09-12T08:08:05;100604.97;;;22.49;73.16
78144;BME280;67394;52.522;13.622;2023-09-12T08:10:31;100604.44;;;22.59;71.88
78144;BME280;67394;52.522;13.622;2023-09-12T08:12:58;100603.16;;;22.85;69.00
78144;BME280;67394;52.522;13.622;2023-09-12T08:15:25;100601.19;;;22.89;69.99
78144;BME280;67394;52.522;13.622;2023-09-12T08:17:54;100598.88;;;23.00;72.67
78144;BME280;67394;52.522;13.622;2023-09-12T08:20:20;100603.22;;;23.17;71.78
78144;BME280;67394;52.522;13.622;2023-09-12T08:22:47;100607.38;;;23.36;67.33
78144;BME280;67394;52.522;13.622;2023-09-12T08:25:14;100611.06;;;23.50;67.31
78144;BME280;67394;52.522;13.622;2023-09-12T08:27:41;100604.19;;;23.63;68.61
78144;BME280;67394;52.522;13.622;2023-09-12T08:30:11;100610.28;;;23.79;67.77
78144;BME280;67394;52.522;13.622;2023-09-12T08:32:40;100607.81;;;23.92;65.93
78144;BME280;67394;52.522;13.622;2023-09-12T08:35:07;100609.38;;;24.10;64.96
78144;BME280;67394;52.522;13.622;2023-09-12T08:37:34;100610.53;;;24.20;65.00
78144;BME280;67394;52.522;13.622;2023-09-12T08:40:01;100613.16;;;24.36;66.08
78144;BME280;67394;52.522;13.622;2023-09-12T08:42:30;100609.91;;;24.47;64.86
78144;BME280;67394;52.522;13.622;2023-09-12T08:44:58;100604.78;;;24.59;62.08
78144;BME280;67394;52.522;13.622;2023-09-12T08:47:28;100601.25;;;24.74;61.60
78144;BME280;67394;52.522;13.622;2023-09-12T08:49:56;100607.38;;;24.89;61.85
78144;BME280;67394;52.522;13.622;2023-09-12T08:52:36;100605.97;;;25.12;60.26
78144;BME280;67394;52.522;13.622;2023-09-12T08:55:06;100618.91;;;25.29;60.72
78144;BME280;67394;52.522;13.622;2023-09-12T08:57:33;100615.88;;;25.49;59.60
78144;BME280;67394;52.522;13.622;2023-09-12T09:00:02;100614.28;;;25.61;58.43
78144;BME280;67394;52.522;13.622;2023-09-12T09:02:29;100620.72;;;25.70;59.30
78144;BME280;67394;52.522;13.622;2023-09-12T09:04:57;100612.91;;;25.82;56.02
78144;BME280;67394;52.522;13.622;2023-09-12T09:07:25;100614.44;;;25.99;56.27
78144;BME280;67394;52.522;13.622;2023-09-12T09:09:51;100613.53;;;26.13;53.97
78144;BME280;67394;52.522;13.622;2023-09-12T09:12:19;100612.06;;;26.36;55.99
78144;BME280;67394;52.522;13.622;2023-09-12T09:14:46;100612.91;;;26.49;55.16
78144;BME280;67394;52.522;13.622;2023-09-12T09:17:14;100610.94;;;26.65;53.47
78144;BME280;67394;52.522;13.622;2023-09-12T09:19:59;100610.94;;;26.78;52.07
78144;BME280;67394;52.522;13.622;2023-09-12T09:22:26;100620.13;;;26.98;52.54
78144;BME280;67394;52.522;13.622;2023-09-12T09:25:11;100618.63;;;27.06;50.68
78144;BME280;67394;52.522;13.622;2023-09-12T09:27:37;100613.06;;;27.11;49.44
78144;BME280;67394;52.522;13.622;2023-09-12T09:30:04;100616.84;;;27.19;50.11
78144;BME280;67394;52.522;13.622;2023-09-12T09:32:31;100621.34;;;27.30;50.63
78144;BME280;67394;52.522;13.622;2023-09-12T09:34:57;100627.44;;;27.43;50.21
78144;BME280;67394;52.522;13.622;2023-09-12T09:37:24;100625.31;;;27.61;49.82
78144;BME280;67394;52.522;13.622;2023-09-12T09:39:51;100626.94;;;27.75;50.29
78144;BME280;67394;52.522;13.622;2023-09-12T09:42:18;100621.69;;;27.75;48.21
78144;BME280;67394;52.522;13.622;2023-09-12T09:44:45;100624.97;;;27.89;49.18
78144;BME280;67394;52.522;13.622;2023-09-12T09:47:12;100621.91;;;27.95;48.34
78144;BME280;67394;52.522;13.622;2023-09-12T09:49:39;100620.22;;;28.18;50.73
78144;BME280;67394;52.522;13.622;2023-09-12T09:52:06;100622.63;;;28.21;47.74
78144;BME280;67394;52.522;13.622;2023-09-12T09:54:34;100618.34;;;28.31;47.93
78144;BME280;67394;52.522;13.622;2023-09-12T09:57:02;100623.28;;;28.36;47.92
78144;BME280;67394;52.522;13.622;2023-09-12T09:59:30;100610.69;;;28.39;46.60
78144;BME280;67394;52.522;13.622;2023-09-12T10:01:58;100620.31;;;28.52;45.83
78144;BME280;67394;52.522;13.622;2023-09-12T10:04:29;100623.44;;;28.46;45.97
78144;BME280;67394;52.522;13.622;2023-09-12T10:06:56;100628.84;;;28.55;45.75
78144;BME280;67394;52.522;13.622;2023-09-12T10:09:26;100624.91;;;28.61;47.63
78144;BME280;67394;52.522;13.622;2023-09-12T10:11:54;100627.28;;;28.53;46.50
78144;BME280;67394;52.522;13.622;2023-09-12T10:14:22;100624.66;;;28.53;47.73
78144;BME280;67394;52.522;13.622;2023-09-12T10:16:57;100626.56;;;28.51;47.57
78144;BME280;67394;52.522;13.622;2023-09-12T10:19:38;100617.69;;;28.52;47.86
78144;BME280;67394;52.522;13.622;2023-09-12T10:22:31;100619.84;;;28.47;47.76
78144;BME280;67394;52.522;13.622;2023-09-12T10:24:59;100620.84;;;28.57;49.91
78144;BME280;67394;52.522;13.622;2023-09-12T10:27:27;100619.66;;;28.72;49.97
78144;BME280;67394;52.522;13.622;2023-09-12T10:29:54;100614.13;;;28.64;48.87
78144;BME280;67394;52.522;13.622;2023-09-12T10:32:22;100612.72;;;28.82;48.39
78144;BME280;67394;52.522;13.622;2023-09-12T10:34:49;100620.59;;;28.49;48.43
78144;BME280;67394;52.522;13.622;2023-09-12T10:37:22;100611.47;;;28.53;49.02
78144;BME280;67394;52.522;13.622;2023-09-12T10:39:56;100602.47;;;28.55;50.46
78144;BME280;67394;52.522;13.622;2023-09-12T10:42:24;100606.75;;;28.80;50.98
78144;BME280;67394;52.522;13.622;2023-09-12T10:44:53;100601.53;;;28.67;49.28
78144;BME280;67394;52.522;13.622;2023-09-12T10:47:21;100601.44;;;28.69;50.27
78144;BME280;67394;52.522;13.622;2023-09-12T10:49:48;100596.50;;;28.75;50.43
78144;BME280;67394;52.522;13.622;2023-09-12T10:52:26;100589.53;;;28.74;50.97
78144;BME280;67394;52.522;13.622;2023-09-12T10:54:53;100594.25;;;28.82;49.22
78144;BME280;67394;52.522;13.622;2023-09-12T10:57:20;100593.31;;;29.05;48.11
78144;BME280;67394;52.522;13.622;2023-09-12T11:02:35;100602.19;;;29.04;48.33
78144;BME280;67394;52.522;13.622;2023-09-12T11:07:58;100599.44;;;29.39;48.44
78144;BME280;67394;52.522;13.622;2023-09-12T11:10:26;100592.47;;;29.38;46.04
78144;BME280;67394;52.522;13.622;2023-09-12T11:12:55;100596.91;;;29.49;45.67
78144;BME280;67394;52.522;13.622;2023-09-12T11:15:23;100594.00;;;29.63;45.53
78144;BME280;67394;52.522;13.622;2023-09-12T11:18:10;100594.69;;;29.76;44.87
78144;BME280;67394;52.522;13.622;2023-09-12T11:20:52;100595.16;;;29.70;45.90
78144;BME280;67394;52.522;13.622;2023-09-12T11:23:19;100589.38;;;29.76;45.22
78144;BME280;67394;52.522;13.622;2023-09-12T11:25:46;100586.88;;;30.07;45.65
78144;BME280;67394;52.522;13.622;2023-09-12T11:28:12;100580.75;;;30.06;44.48
78144;BME280;67394;52.522;13.622;2023-09-12T11:30:55;100575.91;;;30.32;42.57
78144;BME280;67394;52.522;13.622;2023-09-12T11:33:24;100579.16;;;30.36;44.87
78144;BME280;67394;52.522;13.622;2023-09-12T11:35:54;100571.34;;;30.55;42.30
78144;BME280;67394;52.522;13.622;2023-09-12T11:38:29;100580.44;;;30.62;41.50
78144;BME280;67394;52.522;13.622;2023-09-12T11:40:56;100582.03;;;30.74;42.03
78144;BME280;67394;52.522;13.622;2023-09-12T11:43:25;100574.22;;;30.73;45.14
78144;BME280;67394;52.522;13.622;2023-09-12T11:45:54;100579.63;;;30.62;42.31
78144;BME280;67394;52.522;13.622;2023-09-12T11:48:21;100571.56;;;30.52;44.20
78144;BME280;67394;52.522;13.622;2023-09-12T11:50:55;100573.94;;;30.66;43.70
78144;BME280;67394;52.522;13.622;2023-09-12T11:53:24;100570.31;;;30.67;45.12
78144;BME280;67394;52.522;13.622;2023-09-12T11:55:54;100567.91;;;30.64;44.26
78144;BME280;67394;52.522;13.622;2023-09-12T11:58:21;100568.09;;;30.51;43.08
78144;BME280;67394;52.522;13.622;2023-09-12T12:00:54;100574.97;;;30.84;42.52
78144;BME280;67394;52.522;13.622;2023-09-12T12:03:23;100584.34;;;30.88;41.05
78144;BME280;67394;52.522;13.622;2023-09-12T12:05:50;100572.75;;;30.80;43.72
78144;BME280;67394;52.522;13.622;2023-09-12T12:08:18;100576.25;;;31.11;43.81
78144;BME280;67394;52.522;13.622;2023-09-12T12:10:51;100569.63;;;31.05;42.17
78144;BME280;67394;52.522;13.622;2023-09-12T12:13:19;100563.19;;;31.28;41.62
78144;BME280;67394;52.522;13.622;2023-09-12T12:15:46;100563.59;;;31.24;40.89
78144;BME280;67394;52.522;13.622;2023-09-12T12:18:13;100552.56;;;31.28;41.15
78144;BME280;67394;52.522;13.622;2023-09-12T12:20:41;100562.38;;;31.47;41.81
78144;BME280;67394;52.522;13.622;2023-09-12T12:23:08;100560.84;;;31.35;41.15
78144;BME280;67394;52.522;13.622;2023-09-12T12:25:35;100554.50;;;30.86;40.70
78144;BME280;67394;52.522;13.622;2023-09-12T12:28:03;100555.91;;;31.11;41.10
78144;BME280;67394;52.522;13.622;2023-09-12T12:30:31;100564.28;;;31.26;40.91
78144;BME280;67394;52.522;13.622;2023-09-12T12:33:01;100563.16;;;31.19;39.32
78144;BME280;67394;52.522;13.622;2023-09-12T12:36:02;100569.72;;;30.94;40.39
78144;BME280;67394;52.522;13.622;2023-09-12T12:38:37;100570.66;;;30.53;40.23
78144;BME280;67394;52.522;13.622;2023-09-12T12:41:08;100567.69;;;31.07;39.89
78144;BME280;67394;52.522;13.622;2023-09-12T12:43:34;100562.91;;;31.22;40.43
78144;BME280;67394;52.522;13.622;2023-09-12T12:46:01;100564.00;;;31.19;39.59